Pagrindinis puslapis
METAR-TAF:

METAR-TAF

Oro uostai :

Andavajlasas, Peru

platuma: 13-43S, ilguma: 073-21W, Aukštis: 3444 m

Dabartinis oras

Ataskaita buvo paskelbta 35 minutes, ne 14:00 UTC
Vėjas 7 kt iš Šiaurės
Temperatūra 11°C
Drėgmė 82%
Slėgis 1037 hPa
Matomumas: 7000 m
Išsisklaidę debesys ne aukštis 1200 ft
Apsiniaukę ne aukštis 5000 ft
Rūkas lopais

METAR: SPHY 201400Z 36007KT 7000 BCFG SCT012 OVC050 11/08 Q1037 RMK BIRD HAZARD RWY03/21 PP000

Laikas: 09:35 (14:35 UTC)

Prognozė

Ataskaita buvo paskelbta 3 valandos ir 35 minutes, ne 11:00 UTC
Prognozė galioja nuo 20 metu 12 UTC su 21 metu 12 UTC
Vėjas 2 kt iš Šiaurės/Šiaurės Rytų
Matomumas: 8000 m
Išsisklaidę debesys ne aukštis 1200 ft
Su prošvaistėmis ne aukštis 5000 ft
Tapsmas
nuo 20 metu 17 UTC su 20 metu 22 UTC
Vėjas 12 kt iš Šiaurės

TAF: SPHY 201100Z 2012/2112 02002KT 8000 SCT012 BKN050 TX17/2019Z TN05/2111Z BECMG 2017/2022 36012KT

Orai ataskaitas ir orų prognozės (METAR, TAF).

turimą stotys yra geltonos ir raudonos taškus žemėlapyje.

Perkelti pele per norėdami pamatyti stoties vardą.

Tada spustelėkite, norėdami matyti oro stebėjimo ir prognozės.

Norėdami pakeisti žemėlapį: spustelėkite ant žalios mygtukų su juodo kryžiaus žemyn,; žalią mygtuką su brūkšneliu, jei norite nutolinti; arba žalių rodyklių gretimoms žemėlapius.


METAR-TAF: